Time;durP1;ratioP1;P1;durP2;ratioP2;P2;SDS_P1;SDS_P2;PMS_P1;PMS_P2;Temp;Humidity;BMP_temperature;BMP_pressure;BME280_temperature;BME280_humidity;BME280_pressure;Samples;Min_cycle;Max_cycle;Signal;HPM_P1;HPM_P2
2023/08/30 00:05:35;;;;;;;1.02;0.65;;;;;;;20.13;67.50;98706.31;4401963;32;33319;-89
2023/08/30 00:08:18;;;;;;;0.57;0.57;;;;;;;20.32;66.53;98713.34;4394629;32;34160;-89
2023/08/30 00:11:01;;;;;;;0.77;0.62;;;;;;;20.14;67.48;98724.94;4406784;32;34579;-89
2023/08/30 00:14:05;;;;;;;0.55;0.52;;;;;;;20.12;67.45;98721.56;4412137;32;33258;-87
2023/08/30 00:16:54;;;;;;;0.35;0.35;;;;;;;20.16;67.50;98728.28;4395286;32;34405;-87
2023/08/30 00:26:29;;;;;;;0.57;0.57;;;;;;;20.48;66.58;98729.59;4390504;32;32764;-87
2023/08/30 00:29:44;;;;;;;10.35;1.85;;;;;;;20.61;66.53;98727.34;4424503;32;33740;-87
2023/08/30 00:36:18;;;;;;;3.03;1.17;;;;;;;20.03;69.70;98735.03;4388047;32;34255;-87
2023/08/30 00:38:46;;;;;;;1.60;1.17;;;;;;;20.14;68.26;98738.34;4378021;32;32004;-86
2023/08/30 00:45:22;;;;;;;1.33;1.20;;;;;;;20.07;69.18;98731.91;4378722;32;34668;-88
2023/08/30 00:48:22;;;;;;;0.37;0.37;;;;;;;19.74;70.60;98730.72;4387063;32;33826;-88
2023/08/30 00:54:12;;;;;;;0.80;0.80;;;;;;;20.07;69.35;98737.25;4385667;32;20158;-90
2023/08/30 00:57:07;;;;;;;1.40;1.35;;;;;;;19.94;70.00;98747.53;4362199;32;35751;-91
2023/08/30 01:00:09;;;;;;;2.37;1.42;;;;;;;20.23;68.50;98744.63;4350982;32;32291;-90
2023/08/30 01:06:24;;;;;;;1.23;1.23;;;;;;;19.92;70.53;98738.78;4333221;33;33816;-91
2023/08/30 01:09:15;;;;;;;1.27;1.25;;;;;;;19.90;70.22;98747.00;4347478;32;33285;-90
2023/08/30 01:15:48;;;;;;;1.15;1.12;;;;;;;19.91;69.99;98750.50;4422240;32;20181;-88
2023/08/30 01:27:26;;;;;;;1.60;1.50;;;;;;;19.98;69.59;98727.44;4386407;32;33761;-89
2023/08/30 01:33:41;;;;;;;1.73;1.62;;;;;;;19.99;69.78;98733.66;4388466;32;33128;-89
2023/08/30 01:36:49;;;;;;;1.98;1.48;;;;;;;19.88;70.33;98732.88;4389701;32;34979;-86
2023/08/30 01:39:17;;;;;;;1.95;1.40;;;;;;;20.01;69.34;98727.16;4387636;32;33289;-85
2023/08/30 01:42:00;;;;;;;1.45;1.35;;;;;;;20.10;68.74;98726.25;4368343;32;32271;-85
2023/08/30 01:44:34;;;;;;;2.10;1.55;;;;;;;19.47;71.10;98718.19;4397785;32;34116;-85
2023/08/30 01:51:38;;;;;;;6.20;1.27;;;;;;;20.08;68.65;98724.69;4381678;32;34486;-89
2023/08/30 01:54:09;;;;;;;1.62;1.52;;;;;;;20.29;67.59;98730.59;4384043;32;32583;-87
2023/08/30 01:56:40;;;;;;;2.37;1.45;;;;;;;19.94;69.12;98731.47;4371808;32;34216;-87
2023/08/30 01:59:17;;;;;;;2.12;1.62;;;;;;;19.89;69.63;98729.22;4403069;32;34186;-87
2023/08/30 02:01:44;;;;;;;1.00;0.88;;;;;;;19.97;69.30;98732.97;4417969;32;34131;-88
2023/08/30 02:04:13;;;;;;;2.75;1.50;;;;;;;20.15;68.03;98729.28;4400817;32;34250;-88
2023/08/30 02:07:13;;;;;;;1.05;1.05;;;;;;;20.27;67.51;98727.25;4421372;32;32836;-87
2023/08/30 02:09:50;;;;;;;2.20;2.00;;;;;;;19.98;68.54;98723.94;4411409;32;33649;-88
2023/08/30 02:12:53;;;;;;;0.62;0.62;;;;;;;20.13;68.07;98733.97;4412001;32;34580;-89
2023/08/30 02:16:00;;;;;;;1.73;1.55;;;;;;;20.12;68.37;98734.13;4412546;32;20154;-90
2023/08/30 02:19:16;;;;;;;1.02;1.02;;;;;;;19.94;69.15;98736.81;4378826;32;32325;-86
2023/08/30 02:22:26;;;;;;;1.60;1.33;;;;;;;20.07;68.36;98734.56;4367556;32;33251;-86
2023/08/30 02:24:54;;;;;;;1.12;1.12;;;;;;;20.29;67.45;98732.44;4375269;32;33063;-87
2023/08/30 02:27:21;;;;;;;1.70;1.55;;;;;;;20.28;67.39;98738.78;4375662;32;32950;-90
2023/08/30 02:29:51;;;;;;;1.02;1.02;;;;;;;20.19;67.82;98744.06;4370396;32;32982;-90
2023/08/30 02:32:42;;;;;;;1.05;1.05;;;;;;;20.26;68.15;98740.78;4382474;32;34742;-90
2023/08/30 02:35:45;;;;;;;3.45;2.12;;;;;;;20.25;67.99;98744.47;4361637;32;34402;-88
2023/08/30 02:39:03;;;;;;;1.35;1.05;;;;;;;20.35;67.55;98755.94;4372349;32;34746;-88
2023/08/30 02:41:34;;;;;;;1.60;0.82;;;;;;;20.05;69.20;98747.28;4370903;32;32854;-88
2023/08/30 02:44:17;;;;;;;1.42;1.33;;;;;;;19.91;69.98;98742.47;4370141;32;34131;-87
2023/08/30 02:46:56;;;;;;;0.98;0.93;;;;;;;19.99;68.60;98745.25;4367631;32;32735;-89
2023/08/30 02:49:26;;;;;;;1.55;1.45;;;;;;;20.06;69.12;98751.66;4355894;32;32286;-89
2023/08/30 02:52:29;;;;;;;2.72;1.08;;;;;;;19.99;69.48;98744.37;4363923;32;32814;-89
2023/08/30 02:54:57;;;;;;;4.43;2.40;;;;;;;20.08;69.24;98752.38;4383026;32;33989;-87
2023/08/30 02:57:28;;;;;;;0.70;0.70;;;;;;;19.99;69.37;98745.25;4400824;32;34337;-86
2023/08/30 03:00:24;;;;;;;;;;;;;;;;;;;;;
2023/08/30 03:03:29;;;;;;;1.35;1.25;;;;;;;20.07;69.67;98752.50;4394483;32;35995;-86
2023/08/30 03:06:29;;;;;;;3.03;2.03;;;;;;;20.29;67.66;98756.56;4386699;32;33622;-87
2023/08/30 03:13:48;;;;;;;;;;;;;;;;;;;;;
2023/08/30 03:17:06;;;;;;;0.98;0.50;;;;;;;20.15;68.04;98749.91;4342171;32;34376;-85
2023/08/30 03:19:40;;;;;;;2.55;1.87;;;;;;;19.98;69.21;98737.34;4397718;32;33641;-86
2023/08/30 03:22:14;;;;;;;6.50;1.95;;;;;;;20.04;69.14;98736.75;4374002;32;33952;-85
2023/08/30 03:24:42;;;;;;;1.35;1.02;;;;;;;20.07;68.49;98747.97;4392461;32;33431;-85
2023/08/30 03:27:12;;;;;;;0.98;0.95;;;;;;;20.26;67.81;98743.44;4403887;32;32996;-87
2023/08/30 03:29:42;;;;;;;0.80;0.80;;;;;;;20.36;67.61;98741.53;4382235;32;34811;-85
2023/08/30 03:32:21;;;;;;;1.48;1.33;;;;;;;20.26;68.07;98746.13;4396778;32;33659;-86
2023/08/30 03:34:49;;;;;;;1.15;1.15;;;;;;;20.18;67.81;98749.59;4390367;32;33833;-86
2023/08/30 03:37:20;;;;;;;1.25;1.12;;;;;;;20.13;68.40;98747.38;4389586;32;32923;-86
2023/08/30 03:39:48;;;;;;;1.45;1.23;;;;;;;19.69;70.58;98743.72;4370790;32;33501;-84
2023/08/30 03:42:17;;;;;;;2.08;1.87;;;;;;;20.18;68.78;98744.25;4410266;32;33705;-84
2023/08/30 03:45:44;;;;;;;1.10;0.77;;;;;;;20.12;68.54;98748.34;4396934;32;34000;-88
2023/08/30 03:48:18;;;;;;;5.95;1.42;;;;;;;19.90;70.33;98748.81;4377245;32;33516;-88
2023/08/30 03:50:46;;;;;;;1.05;1.05;;;;;;;20.00;69.40;98754.94;4391401;32;34225;-88
2023/08/30 03:53:44;;;;;;;0.62;0.62;;;;;;;20.08;69.27;98754.16;4379752;32;34534;-87
2023/08/30 03:56:36;;;;;;;0.30;0.30;;;;;;;19.89;69.90;98753.34;4396044;32;32634;-87
2023/08/30 03:59:06;;;;;;;0.90;0.90;;;;;;;19.90;69.98;98756.88;4397087;32;33184;-87
2023/08/30 04:01:37;;;;;;;2.50;1.75;;;;;;;19.99;69.34;98750.59;4391377;32;33903;-87
2023/08/30 04:04:07;;;;;;;3.20;1.15;;;;;;;20.19;68.55;98760.16;4409907;32;34328;-87
2023/08/30 04:07:10;;;;;;;0.85;0.75;;;;;;;20.16;68.92;98756.94;4394784;32;33812;-88
2023/08/30 04:09:41;;;;;;;1.75;1.25;;;;;;;20.03;69.73;98761.81;4386196;32;33359;-88
2023/08/30 04:16:09;;;;;;;0.98;0.98;;;;;;;20.19;68.50;98767.38;4362864;32;32725;-88
2023/08/30 04:18:48;;;;;;;0.85;0.80;;;;;;;20.26;67.96;98768.41;4365873;32;32628;-87
2023/08/30 04:22:19;;;;;;;2.65;1.45;;;;;;;20.02;68.93;98769.03;4381758;32;33733;-87
2023/08/30 04:25:38;;;;;;;1.37;1.27;;;;;;;20.02;69.39;98782.44;4383015;32;34107;-85
2023/08/30 04:28:35;;;;;;;1.85;1.50;;;;;;;20.03;68.96;98784.09;4387249;32;34296;-85
2023/08/30 04:31:03;;;;;;;1.25;1.02;;;;;;;20.08;68.59;98776.47;4360863;32;33361;-85
2023/08/30 04:33:32;;;;;;;2.30;0.57;;;;;;;20.45;66.79;98778.12;4373790;32;34199;-85
2023/08/30 04:36:03;;;;;;;1.60;1.33;;;;;;;20.09;68.13;98788.03;4372773;32;33710;-84
2023/08/30 04:38:32;;;;;;;1.45;1.35;;;;;;;20.12;68.24;98793.91;4385841;32;33785;-84
2023/08/30 04:41:20;;;;;;;5.00;2.25;;;;;;;20.48;66.69;98793.97;4376099;32;34886;-85
2023/08/30 04:43:56;;;;;;;1.12;1.12;;;;;;;20.53;66.59;98790.81;4383485;32;34291;-85
2023/08/30 04:46:27;;;;;;;2.10;2.00;;;;;;;20.21;67.56;98793.00;4355141;32;33296;-85
2023/08/30 04:48:55;;;;;;;1.27;1.27;;;;;;;20.43;66.67;98796.22;4377085;32;34709;-87
2023/08/30 04:51:23;;;;;;;1.15;1.12;;;;;;;20.40;66.78;98796.53;4373456;32;33236;-87
2023/08/30 04:53:53;;;;;;;5.68;2.03;;;;;;;20.43;66.76;98782.81;4378645;32;33246;-86
2023/08/30 04:56:51;;;;;;;;;;;;;;;;;;;;;
2023/08/30 05:07:54;;;;;;;3.25;1.65;;;;;;;20.23;67.82;98778.62;4278165;33;33816;-87
2023/08/30 05:11:18;;;;;;;;;;;;;;;;;;;;;
2023/08/30 05:14:16;;;;;;;0.98;0.98;;;;;;;20.19;67.70;98786.97;4284658;33;34602;-86
2023/08/30 05:16:57;;;;;;;0.98;0.98;;;;;;;20.39;66.74;98789.50;4300880;33;32619;-86
2023/08/30 05:19:27;;;;;;;2.62;1.37;;;;;;;20.01;68.29;98791.47;4303146;33;33024;-87
2023/08/30 05:30:34;;;;;;;2.60;1.10;;;;;;;20.06;67.98;98797.22;4328431;32;34131;-87
2023/08/30 05:54:59;;;;;;;;;;;;;;;;;;;;;
2023/08/30 05:58:06;;;;;;;1.42;1.15;;;;;;;20.03;66.64;98805.53;4330635;33;33792;-88
2023/08/30 06:05:42;;;;;;;0.85;0.50;;;;;;;20.27;66.00;98801.44;4381874;32;34694;-86
2023/08/30 06:09:36;;;;;;;4.75;1.23;;;;;;;20.25;65.43;98804.25;4357638;32;34774;-88
2023/08/30 06:29:51;;;;;;;1.42;0.62;;;;;;;20.31;65.95;98829.63;4364493;32;32919;-85
2023/08/30 06:37:59;;;;;;;;;;;;;;;;;;;;;
2023/08/30 06:45:04;;;;;;;;;;;;;;;;;;;;;
2023/08/30 06:48:45;;;;;;;0.80;0.80;;;;;;;20.73;64.83;98829.03;4299997;33;33276;-85
2023/08/30 06:52:25;;;;;;;0.70;0.68;;;;;;;21.15;63.45;98837.22;4318662;33;32704;-86
2023/08/30 06:55:22;;;;;;;1.83;1.60;;;;;;;21.12;63.07;98819.56;4301583;33;32471;-85
2023/08/30 06:57:51;;;;;;;0.90;0.90;;;;;;;21.11;63.26;98828.63;4324377;33;32519;-85
2023/08/30 07:00:19;;;;;;;1.83;1.40;;;;;;;20.85;63.38;98827.78;4312580;33;33610;-84
2023/08/30 07:02:49;;;;;;;2.03;1.87;;;;;;;20.77;63.91;98827.72;4326640;33;33114;-85
2023/08/30 07:05:17;;;;;;;1.75;1.65;;;;;;;20.84;63.76;98836.81;4318219;33;33297;-85
2023/08/30 07:07:46;;;;;;;1.30;1.10;;;;;;;20.60;65.06;98834.78;4325435;33;33845;-84
2023/08/30 07:10:14;;;;;;;1.05;1.00;;;;;;;20.82;64.75;98828.94;4346221;32;33751;-85
2023/08/30 07:12:43;;;;;;;0.52;0.52;;;;;;;20.84;64.28;98834.13;4321577;32;33241;-84
2023/08/30 07:15:17;;;;;;;4.25;0.62;;;;;;;20.73;65.18;98840.59;4334191;32;31938;-85
2023/08/30 07:17:45;;;;;;;1.90;1.80;;;;;;;20.82;64.79;98833.47;4334270;33;33528;-84
2023/08/30 07:20:21;;;;;;;1.30;1.17;;;;;;;20.55;65.56;98837.91;4327988;33;32786;-85
2023/08/30 07:25:53;;;;;;;1.37;0.98;;;;;;;20.79;65.01;98842.66;4345177;33;32741;-85
2023/08/30 07:28:22;;;;;;;2.00;1.42;;;;;;;20.84;64.48;98848.41;4332081;33;33268;-85
2023/08/30 07:30:49;;;;;;;3.00;1.23;;;;;;;20.93;64.08;98847.47;4326106;33;33228;-85
2023/08/30 07:33:17;;;;;;;0.62;0.60;;;;;;;21.04;63.64;98851.75;4345375;33;34703;-84
2023/08/30 07:35:45;;;;;;;1.73;1.55;;;;;;;20.90;63.80;98852.31;4345636;33;33103;-85
2023/08/30 07:38:13;;;;;;;1.92;1.73;;;;;;;20.79;64.47;98860.59;4333380;33;34498;-84
2023/08/30 07:40:41;;;;;;;1.73;1.45;;;;;;;20.92;63.74;98859.19;4323893;32;33314;-85
2023/08/30 07:52:48;;;;;;;1.45;0.90;;;;;;;21.37;63.27;98878.84;4395953;32;34628;-85
2023/08/30 07:55:17;;;;;;;1.95;1.60;;;;;;;21.64;61.43;98878.66;4381751;32;34487;-85
2023/08/30 07:57:46;;;;;;;8.32;1.50;;;;;;;21.67;61.71;98872.97;4377972;32;33514;-85
2023/08/30 08:00:18;;;;;;;2.60;1.60;;;;;;;21.84;61.03;98875.72;4386725;32;33661;-85
2023/08/30 08:02:47;;;;;;;5.50;1.17;;;;;;;21.55;62.51;98873.41;4378278;32;32588;-85
2023/08/30 08:05:15;;;;;;;2.03;1.70;;;;;;;21.62;62.33;98875.31;4385449;32;32623;-85
2023/08/30 08:07:43;;;;;;;1.77;1.52;;;;;;;21.72;61.78;98876.03;4380149;32;33051;-85
2023/08/30 08:10:11;;;;;;;7.40;0.68;;;;;;;21.05;63.51;98882.97;4401148;32;34170;-85
2023/08/30 08:12:39;;;;;;;1.77;1.67;;;;;;;21.21;63.44;98888.44;4387145;32;32767;-87
2023/08/30 08:15:07;;;;;;;1.15;1.08;;;;;;;21.16;63.21;98885.38;4370122;32;33115;-88
2023/08/30 08:17:37;;;;;;;1.95;1.80;;;;;;;21.26;63.67;98890.66;4391816;32;33372;-90
2023/08/30 08:20:16;;;;;;;0.57;0.47;;;;;;;21.58;61.49;98879.31;4375932;32;32824;-90
2023/08/30 08:23:02;;;;;;;1.27;1.17;;;;;;;21.44;62.34;98886.09;4345301;32;32540;-91
2023/08/30 08:25:42;;;;;;;2.10;1.80;;;;;;;21.26;62.95;98895.19;4335320;32;32672;-87
2023/08/30 08:28:10;;;;;;;1.30;0.88;;;;;;;21.52;62.42;98893.38;4355272;32;32235;-88
2023/08/30 08:30:54;;;;;;;1.87;1.20;;;;;;;21.79;60.96;98888.81;4353283;32;32551;-88
2023/08/30 08:33:23;;;;;;;2.97;0.98;;;;;;;21.46;61.63;98886.81;4351771;32;33164;-87
2023/08/30 08:35:51;;;;;;;1.92;0.68;;;;;;;21.84;61.11;98890.03;4360958;32;33795;-89
2023/08/30 08:38:20;;;;;;;2.65;0.52;;;;;;;22.06;60.41;98883.22;4353488;32;33124;-90
2023/08/30 08:41:03;;;;;;;1.37;1.10;;;;;;;21.41;63.54;98885.56;4375683;32;32689;-86
2023/08/30 08:43:32;;;;;;;1.70;0.75;;;;;;;21.96;60.63;98887.87;4369108;32;32771;-87
2023/08/30 08:46:32;;;;;;;;;;;;;;;;;;;;;
2023/08/30 08:49:21;;;;;;;1.23;1.12;;;;;;;21.66;61.49;98894.63;4366719;32;32522;-87
2023/08/30 08:51:49;;;;;;;0.90;0.90;;;;;;;21.60;61.21;98898.81;4393456;32;33587;-86
2023/08/30 08:54:17;;;;;;;0.68;0.68;;;;;;;21.67;61.02;98899.84;4379853;32;33443;-87
2023/08/30 08:56:45;;;;;;;1.90;1.02;;;;;;;21.82;61.15;98889.34;4380642;32;33111;-86
2023/08/30 08:59:13;;;;;;;1.45;1.35;;;;;;;;;;4380598;32;32835;-86
2023/08/30 09:01:42;;;;;;;1.67;0.90;;;;;;;21.82;61.17;98899.25;4404712;32;34738;-86
2023/08/30 09:04:11;;;;;;;1.87;0.62;;;;;;;21.86;60.41;98908.66;4381406;32;34037;-86
2023/08/30 09:06:40;;;;;;;0.90;0.90;;;;;;;21.88;60.38;98906.66;4381304;32;33301;-86
2023/08/30 09:09:09;;;;;;;1.85;1.62;;;;;;;21.65;61.07;98904.53;4390370;32;32612;-86
2023/08/30 09:11:37;;;;;;;12.30;1.73;;;;;;;21.58;61.28;98910.69;4380204;32;33308;-86
2023/08/30 09:14:18;;;;;;;2.50;1.15;;;;;;;21.72;60.72;98910.94;4393394;32;34070;-86
2023/08/30 09:17:00;;;;;;;0.45;0.45;;;;;;;21.66;60.45;98919.66;4375424;32;33216;-86
2023/08/30 09:19:29;;;;;;;8.35;0.90;;;;;;;21.89;60.13;98908.38;4391955;32;34150;-86
2023/08/30 09:25:24;;;;;;;2.83;1.20;;;;;;;21.98;60.25;98913.63;4388942;32;33770;-86
2023/08/30 09:27:59;;;;;;;0.75;0.75;;;;;;;21.83;60.27;98917.88;4391337;32;33454;-86
2023/08/30 09:30:29;;;;;;;0.93;0.93;;;;;;;22.13;59.29;98927.31;4391174;32;32363;-87
2023/08/30 09:33:03;;;;;;;1.50;1.40;;;;;;;21.92;60.12;98924.16;4392749;32;33973;-86
2023/08/30 09:35:32;;;;;;;2.70;2.35;;;;;;;22.20;59.42;98931.03;4392956;32;33950;-87
2023/08/30 09:38:00;;;;;;;0.85;0.85;;;;;;;22.33;58.64;98924.34;4378884;32;34132;-86
2023/08/30 09:40:28;;;;;;;1.12;1.12;;;;;;;22.44;58.55;98929.41;4386483;32;32851;-86
2023/08/30 09:42:58;;;;;;;0.57;0.57;;;;;;;22.43;58.67;98933.13;4388479;32;32795;-86
2023/08/30 09:45:39;;;;;;;1.87;1.25;;;;;;;22.22;59.03;98928.19;4389053;32;33502;-86
2023/08/30 09:48:07;;;;;;;4.97;0.98;;;;;;;22.15;59.60;98927.13;4399694;32;32259;-87
2023/08/30 09:50:35;;;;;;;0.40;0.30;;;;;;;22.35;59.23;98928.56;4398263;32;34152;-86
2023/08/30 09:53:10;;;;;;;1.58;0.90;;;;;;;22.49;59.56;98933.28;4400328;32;33920;-86
2023/08/30 09:55:39;;;;;;;1.25;0.75;;;;;;;22.18;60.27;98934.91;4386171;32;34236;-86
2023/08/30 09:58:08;;;;;;;0.47;0.30;;;;;;;22.50;58.91;98928.75;4388011;32;33184;-86
2023/08/30 10:00:37;;;;;;;0.20;0.20;;;;;;;22.44;59.12;98935.63;4388010;32;32513;-86
2023/08/30 10:03:05;;;;;;;2.20;0.95;;;;;;;22.04;59.80;98939.00;4400308;32;33854;-87
2023/08/30 10:05:53;;;;;;;0.37;0.35;;;;;;;22.53;58.73;98938.38;4351130;32;33230;-86
2023/08/30 10:08:23;;;;;;;0.30;0.30;;;;;;;22.15;59.97;98941.44;4374662;32;33281;-86
2023/08/30 10:10:54;;;;;;;3.08;0.62;;;;;;;22.23;60.27;98938.78;4381975;32;33404;-86
2023/08/30 10:13:29;;;;;;;10.43;1.10;;;;;;;22.31;59.89;98943.31;4364529;32;33787;-88
2023/08/30 10:16:03;;;;;;;0.50;0.50;;;;;;;22.23;59.93;98944.16;4375026;32;33932;-89
2023/08/30 10:18:34;;;;;;;0.57;0.55;;;;;;;22.46;59.67;98943.56;4369351;32;33065;-90
2023/08/30 10:21:08;;;;;;;0.37;0.37;;;;;;;22.72;59.47;98928.13;4383021;32;32550;-88
2023/08/30 10:23:37;;;;;;;0.62;0.62;;;;;;;22.88;58.87;98924.66;4384232;32;33054;-87
2023/08/30 10:26:06;;;;;;;1.77;1.35;;;;;;;22.69;59.23;98923.09;4385817;32;33206;-87
2023/08/30 10:28:35;;;;;;;4.20;1.42;;;;;;;22.83;58.31;98918.06;4386792;32;32812;-88
2023/08/30 10:31:03;;;;;;;0.80;0.73;;;;;;;22.76;59.53;98925.97;4389749;32;33604;-88
2023/08/30 10:33:31;;;;;;;0.35;0.35;;;;;;;22.97;57.73;98920.97;4389743;32;33561;-88
2023/08/30 10:36:05;;;;;;;0.35;0.35;;;;;;;23.04;57.92;98931.91;4373421;32;32663;-87
2023/08/30 10:38:38;;;;;;;1.05;0.50;;;;;;;22.85;58.93;98933.03;4386828;32;33352;-88
2023/08/30 10:41:07;;;;;;;1.17;0.75;;;;;;;23.01;57.67;98929.56;4390751;32;32394;-87
2023/08/30 10:43:36;;;;;;;2.45;1.40;;;;;;;23.11;57.89;98935.59;4387063;32;33148;-88
2023/08/30 10:46:11;;;;;;;0.47;0.35;;;;;;;23.03;57.60;98924.84;4390116;32;32877;-87
2023/08/30 10:48:42;;;;;;;1.02;0.35;;;;;;;23.28;57.28;98923.00;4400748;32;34071;-87
2023/08/30 10:51:21;;;;;;;0.80;0.47;;;;;;;23.11;57.81;98926.69;4376032;32;32378;-88
2023/08/30 10:53:58;;;;;;;0.22;0.22;;;;;;;23.16;58.29;98918.94;4389384;32;33015;-88
2023/08/30 10:56:30;;;;;;;0.60;0.60;;;;;;;23.30;57.51;98910.19;4375110;32;32895;-87
2023/08/30 10:58:59;;;;;;;1.48;1.00;;;;;;;23.41;56.46;98914.41;4399228;32;34124;-88
2023/08/30 11:01:27;;;;;;;1.20;0.65;;;;;;;23.65;56.80;98910.84;4374187;32;32369;-88
2023/08/30 11:03:55;;;;;;;0.52;0.52;;;;;;;24.06;54.71;98908.84;4387219;32;33124;-88
2023/08/30 11:06:45;;;;;;;0.30;0.30;;;;;;;23.72;55.06;98918.06;4389623;32;33928;-88
2023/08/30 11:09:14;;;;;;;1.92;0.60;;;;;;;24.04;55.62;98907.34;4410577;32;33451;-88
2023/08/30 11:11:42;;;;;;;0.13;0.13;;;;;;;24.29;54.09;98911.59;4388276;32;32832;-87
2023/08/30 11:14:10;;;;;;;4.80;0.73;;;;;;;23.66;56.45;98916.06;4401999;32;33792;-87
2023/08/30 11:16:38;;;;;;;1.45;0.52;;;;;;;23.85;56.08;98911.28;4375377;32;33415;-87
2023/08/30 11:19:09;;;;;;;0.05;0.05;;;;;;;23.99;54.45;98911.41;4404318;32;34234;-88
2023/08/30 11:21:38;;;;;;;0.17;0.05;;;;;;;23.99;54.81;98914.09;4389119;32;31872;-88
2023/08/30 11:24:07;;;;;;;0.55;0.55;;;;;;;24.17;53.70;98908.47;4391146;32;33121;-88
2023/08/30 11:26:36;;;;;;;0.47;0.47;;;;;;;24.08;54.64;98911.37;4384261;32;33322;-88
2023/08/30 11:29:05;;;;;;;0.93;0.70;;;;;;;24.36;53.95;98907.22;4394896;32;32236;-88
2023/08/30 11:31:33;;;;;;;0.77;0.40;;;;;;;24.90;51.71;98907.22;4388974;32;32563;-88
2023/08/30 11:34:02;;;;;;;0.25;0.25;;;;;;;24.45;54.76;98906.19;4401439;32;32955;-88
2023/08/30 11:36:31;;;;;;;0.37;0.37;;;;;;;24.36;55.04;98907.22;4391067;32;34709;-88
2023/08/30 11:38:59;;;;;;;0.08;0.08;;;;;;;24.50;54.09;98897.53;4387846;32;32560;-87
2023/08/30 11:41:27;;;;;;;0.85;0.70;;;;;;;24.12;54.43;98905.47;4389253;32;32476;-88
2023/08/30 11:43:55;;;;;;;0.20;0.20;;;;;;;24.33;54.23;98917.50;4398007;32;34149;-88
2023/08/30 11:46:23;;;;;;;0.30;0.30;;;;;;;23.90;55.29;98912.44;4386153;32;33923;-87
2023/08/30 11:48:52;;;;;;;0.65;0.62;;;;;;;23.93;54.78;98916.66;4356924;32;34269;-88
2023/08/30 11:51:20;;;;;;;0.40;0.40;;;;;;;24.12;54.83;98913.56;4395474;32;33428;-88
2023/08/30 11:53:49;;;;;;;0.70;0.55;;;;;;;24.14;54.53;98914.22;4370366;32;32884;-87
2023/08/30 11:56:17;;;;;;;0.13;0.13;;;;;;;24.24;54.85;98914.00;4372319;32;32686;-88
2023/08/30 11:58:45;;;;;;;0.75;0.50;;;;;;;24.01;54.88;98911.22;4407950;32;33807;-87
2023/08/30 12:01:14;;;;;;;1.05;0.40;;;;;;;24.21;54.98;98907.12;4378419;32;34079;-88
2023/08/30 12:03:42;;;;;;;0.43;0.43;;;;;;;24.47;53.53;98914.06;4392043;32;32745;-88
2023/08/30 12:06:12;;;;;;;0.00;0.00;;;;;;;24.17;54.34;98911.16;4372092;32;32949;-88
2023/08/30 12:08:39;;;;;;;0.35;0.35;;;;;;;24.14;54.23;98907.97;4386851;32;33556;-88
2023/08/30 12:11:20;;;;;;;0.28;0.28;;;;;;;24.08;53.85;98912.22;4383893;32;32476;-87
2023/08/30 12:13:48;;;;;;;0.62;0.62;;;;;;;23.80;54.72;98911.81;4370361;32;33066;-88
2023/08/30 12:16:17;;;;;;;0.20;0.20;;;;;;;23.89;55.62;98908.06;4377748;32;34499;-87
2023/08/30 12:18:45;;;;;;;0.25;0.25;;;;;;;24.17;54.67;98907.62;4385263;32;31738;-88
2023/08/30 12:21:14;;;;;;;1.17;0.60;;;;;;;24.22;54.38;98902.56;4386843;32;33074;-87
2023/08/30 12:23:42;;;;;;;0.05;0.05;;;;;;;24.42;53.68;98897.59;4383418;32;33614;-87
2023/08/30 12:26:10;;;;;;;0.35;0.35;;;;;;;24.04;54.67;98908.19;4393994;32;33430;-88
2023/08/30 12:28:40;;;;;;;1.55;0.75;;;;;;;23.92;54.74;98913.09;4380465;32;33865;-87
2023/08/30 12:31:08;;;;;;;0.90;0.80;;;;;;;24.15;54.39;98910.50;4370438;32;33176;-87
2023/08/30 12:33:36;;;;;;;0.98;0.75;;;;;;;24.01;54.89;98911.22;4389212;32;34032;-87
2023/08/30 12:36:05;;;;;;;0.28;0.28;;;;;;;24.16;54.54;98904.06;4402889;32;33885;-87
2023/08/30 12:38:33;;;;;;;0.50;0.50;;;;;;;24.43;53.91;98902.78;4393696;32;33730;-87
2023/08/30 12:41:01;;;;;;;1.55;1.17;;;;;;;24.31;53.89;98904.19;4369905;32;34434;-87
2023/08/30 12:43:28;;;;;;;0.52;0.52;;;;;;;24.22;53.77;98895.31;4385102;32;34371;-87
2023/08/30 12:45:57;;;;;;;0.55;0.47;;;;;;;24.13;54.26;98900.91;4370623;32;32867;-87
2023/08/30 12:48:25;;;;;;;0.35;0.22;;;;;;;23.90;55.19;98890.03;4368562;32;33265;-87
2023/08/30 12:50:52;;;;;;;0.57;0.57;;;;;;;23.80;54.82;98892.09;4381296;32;31423;-87
2023/08/30 12:53:20;;;;;;;0.52;0.35;;;;;;;23.75;55.14;98887.22;4372153;32;34558;-87
2023/08/30 12:55:48;;;;;;;1.62;0.80;;;;;;;23.31;56.80;98889.47;4371279;32;33695;-87
2023/08/30 12:58:16;;;;;;;2.00;0.85;;;;;;;23.38;56.42;98893.19;4372475;32;32669;-87
2023/08/30 13:00:44;;;;;;;0.10;0.10;;;;;;;23.16;56.56;98892.84;4368312;32;32196;-87
2023/08/30 13:03:12;;;;;;;2.12;0.65;;;;;;;23.41;56.53;98891.00;4380355;32;34654;-87
2023/08/30 13:05:41;;;;;;;0.43;0.20;;;;;;;23.79;55.60;98898.53;4373376;32;33049;-87
2023/08/30 13:08:09;;;;;;;0.17;0.17;;;;;;;23.88;54.85;98889.34;4368157;32;33273;-88
2023/08/30 13:10:37;;;;;;;0.20;0.20;;;;;;;23.57;55.75;98891.97;4369032;32;33160;-87
2023/08/30 13:13:04;;;;;;;0.52;0.52;;;;;;;23.48;55.79;98885.75;4381513;32;34028;-87
2023/08/30 13:15:32;;;;;;;0.37;0.37;;;;;;;23.06;56.19;98881.41;4365647;32;33494;-88
2023/08/30 13:18:00;;;;;;;0.55;0.45;;;;;;;23.73;55.08;98871.22;4364739;32;33854;-87
2023/08/30 13:20:29;;;;;;;0.20;0.20;;;;;;;23.83;55.07;98868.31;4386797;32;33018;-87
2023/08/30 13:22:57;;;;;;;0.10;0.10;;;;;;;23.80;54.15;98873.25;4379768;32;32338;-87
2023/08/30 13:25:25;;;;;;;2.10;0.47;;;;;;;23.44;56.20;98879.00;4378605;32;33557;-87
2023/08/30 13:27:53;;;;;;;0.57;0.57;;;;;;;23.81;54.29;98881.13;4380277;32;34352;-87
2023/08/30 13:30:21;;;;;;;0.30;0.13;;;;;;;23.34;55.80;98883.75;4365834;32;32354;-87
2023/08/30 13:32:49;;;;;;;0.20;0.20;;;;;;;23.50;55.05;98883.75;4362090;32;32956;-87
2023/08/30 13:35:16;;;;;;;0.32;0.32;;;;;;;23.74;54.10;98885.56;4377930;32;34523;-87
2023/08/30 13:37:45;;;;;;;1.70;1.30;;;;;;;23.71;55.24;98884.03;4365027;32;33545;-87
2023/08/30 13:40:13;;;;;;;0.62;0.47;;;;;;;23.99;54.62;98879.06;4361245;32;32537;-87
2023/08/30 13:42:41;;;;;;;3.62;1.00;;;;;;;24.43;53.36;98877.66;4372713;32;34742;-88
2023/08/30 13:45:09;;;;;;;0.15;0.15;;;;;;;24.33;53.08;98874.34;4377069;32;34028;-87
2023/08/30 13:47:37;;;;;;;0.88;0.77;;;;;;;24.52;52.23;98868.50;4369206;32;34532;-86
2023/08/30 13:50:06;;;;;;;0.25;0.25;;;;;;;23.86;53.57;98880.63;4351910;32;31955;-87
2023/08/30 13:52:34;;;;;;;0.20;0.20;;;;;;;23.98;53.39;98888.16;4369061;32;32537;-87
2023/08/30 13:55:02;;;;;;;0.20;0.20;;;;;;;24.26;52.58;98885.00;4365590;32;31354;-87
2023/08/30 13:57:33;;;;;;;0.37;0.37;;;;;;;23.57;55.25;98890.09;4352986;32;33025;-87
2023/08/30 14:00:06;;;;;;;0.10;0.10;;;;;;;23.47;55.08;98894.84;4385600;32;32418;-86
2023/08/30 14:02:36;;;;;;;0.00;0.00;;;;;;;23.82;54.85;98888.22;4380140;32;33354;-87
2023/08/30 14:05:04;;;;;;;3.00;0.80;;;;;;;23.61;54.70;98907.62;4381169;32;33721;-87
2023/08/30 14:07:32;;;;;;;0.50;0.50;;;;;;;23.95;53.25;98899.28;4354003;32;32358;-87
2023/08/30 14:10:00;;;;;;;0.00;0.00;;;;;;;23.64;53.57;98901.94;4371720;32;33356;-87
2023/08/30 14:12:28;;;;;;;0.90;0.85;;;;;;;23.33;55.06;98892.84;4352681;32;34004;-87
2023/08/30 14:14:55;;;;;;;0.20;0.20;;;;;;;23.87;52.60;98895.78;4366737;32;33616;-86
2023/08/30 14:17:24;;;;;;;0.32;0.32;;;;;;;23.96;52.60;98897.44;4368114;32;34464;-87
2023/08/30 14:19:52;;;;;;;0.20;0.20;;;;;;;23.63;53.83;98905.56;4370191;32;32424;-87
2023/08/30 14:22:19;;;;;;;0.03;0.03;;;;;;;23.48;53.31;98901.91;4369879;32;31107;-87
2023/08/30 14:24:47;;;;;;;0.50;0.50;;;;;;;23.92;52.87;98899.62;4393725;32;33836;-87
2023/08/30 14:27:35;;;;;;;0.00;0.00;;;;;;;23.92;52.94;98904.19;4383372;32;33591;-87
2023/08/30 14:30:04;;;;;;;0.75;0.28;;;;;;;23.90;54.42;98903.53;4370656;32;32899;-87
2023/08/30 14:32:32;;;;;;;0.17;0.17;;;;;;;23.81;53.53;98912.66;4381761;32;32934;-87
2023/08/30 14:34:59;;;;;;;0.50;0.25;;;;;;;23.57;54.13;98917.06;4368104;32;32981;-86
2023/08/30 14:37:28;;;;;;;0.30;0.30;;;;;;;23.85;54.07;98911.28;4385245;32;33861;-87
2023/08/30 14:39:56;;;;;;;0.50;0.50;;;;;;;24.15;53.13;98915.88;4389894;32;32613;-87
2023/08/30 14:42:23;;;;;;;0.50;0.40;;;;;;;23.44;53.76;98917.56;4384931;32;33781;-86
2023/08/30 14:44:51;;;;;;;0.25;0.22;;;;;;;23.36;54.17;98920.31;4383716;32;34148;-86
2023/08/30 14:47:20;;;;;;;0.10;0.10;;;;;;;23.44;54.33;98919.44;4404282;32;33071;-86